sensor_id;sensor_type;location;lat;lon;timestamp;P1;durP1;ratioP1;P2;durP2;ratioP2
52368;SDS011;38298;50.346;3.526;2022-12-18T00:01:48;77.47;;;26.17;;
52368;SDS011;38298;50.346;3.526;2022-12-18T00:04:16;80.28;;;26.73;;
52368;SDS011;38298;50.346;3.526;2022-12-18T00:06:44;69.93;;;24.83;;
52368;SDS011;38298;50.346;3.526;2022-12-18T00:09:10;77.13;;;26.50;;
52368;SDS011;38298;50.346;3.526;2022-12-18T00:11:36;71.22;;;26.05;;
52368;SDS011;38298;50.346;3.526;2022-12-18T00:14:02;76.80;;;25.88;;
52368;SDS011;38298;50.346;3.526;2022-12-18T00:16:28;73.25;;;26.10;;
52368;SDS011;38298;50.346;3.526;2022-12-18T00:19:00;73.07;;;27.20;;
52368;SDS011;38298;50.346;3.526;2022-12-18T00:21:27;66.20;;;24.98;;
52368;SDS011;38298;50.346;3.526;2022-12-18T00:23:53;62.35;;;23.02;;
52368;SDS011;38298;50.346;3.526;2022-12-18T00:26:20;65.95;;;22.67;;
52368;SDS011;38298;50.346;3.526;2022-12-18T00:28:47;64.25;;;22.48;;
52368;SDS011;38298;50.346;3.526;2022-12-18T00:31:15;63.38;;;22.27;;
52368;SDS011;38298;50.346;3.526;2022-12-18T00:33:41;66.25;;;24.20;;
52368;SDS011;38298;50.346;3.526;2022-12-18T00:36:09;68.13;;;23.23;;
52368;SDS011;38298;50.346;3.526;2022-12-18T00:38:36;66.28;;;23.35;;
52368;SDS011;38298;50.346;3.526;2022-12-18T00:41:03;59.00;;;22.38;;
52368;SDS011;38298;50.346;3.526;2022-12-18T00:43:29;83.35;;;27.15;;
52368;SDS011;38298;50.346;3.526;2022-12-18T00:45:55;73.53;;;25.67;;
52368;SDS011;38298;50.346;3.526;2022-12-18T00:48:21;67.25;;;24.73;;
52368;SDS011;38298;50.346;3.526;2022-12-18T00:50:48;75.45;;;24.48;;
52368;SDS011;38298;50.346;3.526;2022-12-18T00:53:14;69.68;;;24.17;;
52368;SDS011;38298;50.346;3.526;2022-12-18T00:55:40;67.38;;;25.33;;
52368;SDS011;38298;50.346;3.526;2022-12-18T00:58:07;63.60;;;22.98;;
52368;SDS011;38298;50.346;3.526;2022-12-18T01:00:33;65.88;;;23.35;;
52368;SDS011;38298;50.346;3.526;2022-12-18T01:02:59;64.97;;;22.67;;
52368;SDS011;38298;50.346;3.526;2022-12-18T01:05:25;66.45;;;23.25;;
52368;SDS011;38298;50.346;3.526;2022-12-18T01:07:52;72.70;;;24.40;;
52368;SDS011;38298;50.346;3.526;2022-12-18T01:10:18;62.97;;;22.25;;
52368;SDS011;38298;50.346;3.526;2022-12-18T01:12:44;61.58;;;22.13;;
52368;SDS011;38298;50.346;3.526;2022-12-18T01:15:12;62.20;;;23.90;;
52368;SDS011;38298;50.346;3.526;2022-12-18T01:17:38;70.28;;;22.52;;
52368;SDS011;38298;50.346;3.526;2022-12-18T01:20:04;64.95;;;23.65;;
52368;SDS011;38298;50.346;3.526;2022-12-18T01:22:34;64.47;;;24.40;;
52368;SDS011;38298;50.346;3.526;2022-12-18T01:25:00;60.90;;;21.33;;
52368;SDS011;38298;50.346;3.526;2022-12-18T01:27:26;62.40;;;22.42;;
52368;SDS011;38298;50.346;3.526;2022-12-18T01:29:52;65.63;;;21.90;;
52368;SDS011;38298;50.346;3.526;2022-12-18T01:32:19;63.50;;;23.27;;
52368;SDS011;38298;50.346;3.526;2022-12-18T01:34:45;70.45;;;23.55;;
52368;SDS011;38298;50.346;3.526;2022-12-18T01:37:11;73.97;;;24.95;;
52368;SDS011;38298;50.346;3.526;2022-12-18T01:39:37;64.68;;;22.88;;
52368;SDS011;38298;50.346;3.526;2022-12-18T01:42:05;63.17;;;24.35;;
52368;SDS011;38298;50.346;3.526;2022-12-18T01:49:44;60.90;;;23.27;;
52368;SDS011;38298;50.346;3.526;2022-12-18T01:52:10;62.22;;;21.60;;
52368;SDS011;38298;50.346;3.526;2022-12-18T01:54:36;61.03;;;22.08;;
52368;SDS011;38298;50.346;3.526;2022-12-18T01:57:03;57.15;;;22.17;;
52368;SDS011;38298;50.346;3.526;2022-12-18T01:59:29;66.00;;;24.10;;
52368;SDS011;38298;50.346;3.526;2022-12-18T02:01:55;62.63;;;23.35;;
52368;SDS011;38298;50.346;3.526;2022-12-18T02:04:22;64.43;;;23.35;;
52368;SDS011;38298;50.346;3.526;2022-12-18T02:06:50;51.78;;;20.67;;
52368;SDS011;38298;50.346;3.526;2022-12-18T02:09:19;65.03;;;23.00;;
52368;SDS011;38298;50.346;3.526;2022-12-18T02:24:42;54.38;;;21.10;;
52368;SDS011;38298;50.346;3.526;2022-12-18T02:27:10;55.47;;;19.63;;
52368;SDS011;38298;50.346;3.526;2022-12-18T02:29:41;62.60;;;22.20;;
52368;SDS011;38298;50.346;3.526;2022-12-18T02:32:11;62.47;;;20.80;;
52368;SDS011;38298;50.346;3.526;2022-12-18T02:34:39;65.07;;;21.17;;
52368;SDS011;38298;50.346;3.526;2022-12-18T02:37:06;59.83;;;21.77;;
52368;SDS011;38298;50.346;3.526;2022-12-18T02:39:34;59.05;;;19.98;;
52368;SDS011;38298;50.346;3.526;2022-12-18T02:42:00;56.85;;;21.30;;
52368;SDS011;38298;50.346;3.526;2022-12-18T02:44:33;58.58;;;20.63;;
52368;SDS011;38298;50.346;3.526;2022-12-18T02:47:00;57.90;;;19.63;;
52368;SDS011;38298;50.346;3.526;2022-12-18T02:49:31;57.67;;;20.42;;
52368;SDS011;38298;50.346;3.526;2022-12-18T02:52:05;52.53;;;19.27;;
52368;SDS011;38298;50.346;3.526;2022-12-18T02:57:19;52.05;;;20.73;;
52368;SDS011;38298;50.346;3.526;2022-12-18T03:05:20;47.08;;;17.08;;
52368;SDS011;38298;50.346;3.526;2022-12-18T03:07:51;50.15;;;17.02;;
52368;SDS011;38298;50.346;3.526;2022-12-18T03:10:21;41.03;;;16.05;;
52368;SDS011;38298;50.346;3.526;2022-12-18T03:15:40;43.97;;;17.75;;
52368;SDS011;38298;50.346;3.526;2022-12-18T03:18:10;46.40;;;16.67;;
52368;SDS011;38298;50.346;3.526;2022-12-18T03:20:36;50.30;;;16.83;;
52368;SDS011;38298;50.346;3.526;2022-12-18T03:23:08;45.22;;;17.65;;
52368;SDS011;38298;50.346;3.526;2022-12-18T03:25:35;43.78;;;15.95;;
52368;SDS011;38298;50.346;3.526;2022-12-18T03:28:03;41.75;;;15.80;;
52368;SDS011;38298;50.346;3.526;2022-12-18T03:30:33;43.53;;;15.45;;
52368;SDS011;38298;50.346;3.526;2022-12-18T03:33:06;40.70;;;14.98;;
52368;SDS011;38298;50.346;3.526;2022-12-18T03:35:34;50.42;;;14.85;;
52368;SDS011;38298;50.346;3.526;2022-12-18T03:38:01;31.63;;;13.88;;
52368;SDS011;38298;50.346;3.526;2022-12-18T03:40:30;35.25;;;13.70;;
52368;SDS011;38298;50.346;3.526;2022-12-18T03:43:03;38.03;;;14.52;;
52368;SDS011;38298;50.346;3.526;2022-12-18T03:45:40;35.35;;;14.30;;
52368;SDS011;38298;50.346;3.526;2022-12-18T03:48:08;38.28;;;13.65;;
52368;SDS011;38298;50.346;3.526;2022-12-18T03:50:45;30.63;;;11.90;;
52368;SDS011;38298;50.346;3.526;2022-12-18T03:55:53;32.10;;;11.18;;
52368;SDS011;38298;50.346;3.526;2022-12-18T03:58:20;32.13;;;12.48;;
52368;SDS011;38298;50.346;3.526;2022-12-18T04:00:49;28.55;;;11.75;;
52368;SDS011;38298;50.346;3.526;2022-12-18T04:03:15;30.92;;;13.20;;
52368;SDS011;38298;50.346;3.526;2022-12-18T04:05:42;37.72;;;13.02;;
52368;SDS011;38298;50.346;3.526;2022-12-18T04:08:08;37.40;;;13.27;;
52368;SDS011;38298;50.346;3.526;2022-12-18T04:10:35;42.53;;;13.68;;
52368;SDS011;38298;50.346;3.526;2022-12-18T04:13:01;36.70;;;14.27;;
52368;SDS011;38298;50.346;3.526;2022-12-18T04:15:27;35.65;;;13.23;;
52368;SDS011;38298;50.346;3.526;2022-12-18T04:17:53;35.30;;;12.93;;
52368;SDS011;38298;50.346;3.526;2022-12-18T04:20:19;35.72;;;13.90;;
52368;SDS011;38298;50.346;3.526;2022-12-18T04:22:45;29.35;;;12.50;;
52368;SDS011;38298;50.346;3.526;2022-12-18T04:25:11;34.00;;;12.70;;
52368;SDS011;38298;50.346;3.526;2022-12-18T04:27:37;38.70;;;12.77;;
52368;SDS011;38298;50.346;3.526;2022-12-18T04:30:03;27.55;;;10.98;;
52368;SDS011;38298;50.346;3.526;2022-12-18T04:32:29;32.55;;;13.15;;
52368;SDS011;38298;50.346;3.526;2022-12-18T04:34:55;30.38;;;11.40;;
52368;SDS011;38298;50.346;3.526;2022-12-18T04:37:21;30.98;;;11.73;;
52368;SDS011;38298;50.346;3.526;2022-12-18T04:39:47;31.65;;;13.20;;
52368;SDS011;38298;50.346;3.526;2022-12-18T04:42:13;33.42;;;11.30;;
52368;SDS011;38298;50.346;3.526;2022-12-18T04:44:39;27.17;;;11.43;;
52368;SDS011;38298;50.346;3.526;2022-12-18T04:47:05;25.80;;;10.25;;
52368;SDS011;38298;50.346;3.526;2022-12-18T04:49:32;29.10;;;10.82;;
52368;SDS011;38298;50.346;3.526;2022-12-18T04:51:58;26.88;;;11.20;;
52368;SDS011;38298;50.346;3.526;2022-12-18T04:54:24;25.08;;;10.32;;
52368;SDS011;38298;50.346;3.526;2022-12-18T04:56:50;28.60;;;10.18;;
52368;SDS011;38298;50.346;3.526;2022-12-18T04:59:16;26.65;;;10.43;;
52368;SDS011;38298;50.346;3.526;2022-12-18T05:01:42;23.13;;;10.13;;
52368;SDS011;38298;50.346;3.526;2022-12-18T05:04:08;25.67;;;9.23;;
52368;SDS011;38298;50.346;3.526;2022-12-18T05:06:34;22.63;;;9.85;;
52368;SDS011;38298;50.346;3.526;2022-12-18T05:09:00;27.80;;;10.30;;
52368;SDS011;38298;50.346;3.526;2022-12-18T05:11:26;19.85;;;8.57;;
52368;SDS011;38298;50.346;3.526;2022-12-18T05:13:52;25.30;;;9.00;;
52368;SDS011;38298;50.346;3.526;2022-12-18T05:16:21;19.75;;;8.80;;
52368;SDS011;38298;50.346;3.526;2022-12-18T05:18:47;25.33;;;9.05;;
52368;SDS011;38298;50.346;3.526;2022-12-18T05:21:13;21.98;;;9.18;;
52368;SDS011;38298;50.346;3.526;2022-12-18T05:23:39;27.55;;;9.90;;
52368;SDS011;38298;50.346;3.526;2022-12-18T05:26:05;29.92;;;11.23;;
52368;SDS011;38298;50.346;3.526;2022-12-18T05:28:33;28.40;;;10.02;;
52368;SDS011;38298;50.346;3.526;2022-12-18T05:31:00;30.25;;;11.63;;
52368;SDS011;38298;50.346;3.526;2022-12-18T05:33:28;28.33;;;10.75;;
52368;SDS011;38298;50.346;3.526;2022-12-18T05:35:55;22.40;;;10.18;;
52368;SDS011;38298;50.346;3.526;2022-12-18T05:38:21;31.58;;;12.10;;
52368;SDS011;38298;50.346;3.526;2022-12-18T05:40:48;32.63;;;13.35;;
52368;SDS011;38298;50.346;3.526;2022-12-18T05:43:14;36.80;;;13.10;;
52368;SDS011;38298;50.346;3.526;2022-12-18T05:45:41;33.42;;;11.95;;
52368;SDS011;38298;50.346;3.526;2022-12-18T05:48:07;29.23;;;12.10;;
52368;SDS011;38298;50.346;3.526;2022-12-18T05:50:34;32.58;;;13.18;;
52368;SDS011;38298;50.346;3.526;2022-12-18T05:53:01;34.20;;;13.02;;
52368;SDS011;38298;50.346;3.526;2022-12-18T05:55:27;41.50;;;13.77;;
52368;SDS011;38298;50.346;3.526;2022-12-18T05:57:53;33.50;;;13.10;;
52368;SDS011;38298;50.346;3.526;2022-12-18T06:00:19;41.30;;;14.30;;
52368;SDS011;38298;50.346;3.526;2022-12-18T06:02:48;37.28;;;13.13;;
52368;SDS011;38298;50.346;3.526;2022-12-18T06:05:14;42.90;;;13.38;;
52368;SDS011;38298;50.346;3.526;2022-12-18T06:07:40;35.58;;;13.45;;
52368;SDS011;38298;50.346;3.526;2022-12-18T06:10:06;32.83;;;13.70;;
52368;SDS011;38298;50.346;3.526;2022-12-18T06:12:32;33.92;;;12.38;;
52368;SDS011;38298;50.346;3.526;2022-12-18T06:15:01;27.60;;;10.77;;
52368;SDS011;38298;50.346;3.526;2022-12-18T06:17:28;31.42;;;12.13;;
52368;SDS011;38298;50.346;3.526;2022-12-18T06:19:54;34.95;;;12.73;;
52368;SDS011;38298;50.346;3.526;2022-12-18T06:22:20;29.27;;;11.93;;
52368;SDS011;38298;50.346;3.526;2022-12-18T06:24:46;24.45;;;10.73;;
52368;SDS011;38298;50.346;3.526;2022-12-18T06:27:12;27.83;;;11.27;;
52368;SDS011;38298;50.346;3.526;2022-12-18T06:29:39;31.80;;;11.25;;
52368;SDS011;38298;50.346;3.526;2022-12-18T06:32:05;37.35;;;10.43;;
52368;SDS011;38298;50.346;3.526;2022-12-18T06:34:31;27.67;;;9.52;;
52368;SDS011;38298;50.346;3.526;2022-12-18T06:36:57;27.77;;;10.13;;
52368;SDS011;38298;50.346;3.526;2022-12-18T06:39:23;25.83;;;10.18;;
52368;SDS011;38298;50.346;3.526;2022-12-18T06:41:50;26.73;;;9.45;;
52368;SDS011;38298;50.346;3.526;2022-12-18T06:44:15;29.48;;;10.50;;
52368;SDS011;38298;50.346;3.526;2022-12-18T06:46:41;25.45;;;10.23;;
52368;SDS011;38298;50.346;3.526;2022-12-18T06:49:07;24.50;;;8.88;;
52368;SDS011;38298;50.346;3.526;2022-12-18T06:51:34;20.63;;;9.38;;
52368;SDS011;38298;50.346;3.526;2022-12-18T06:54:00;22.83;;;9.13;;
52368;SDS011;38298;50.346;3.526;2022-12-18T06:56:26;24.65;;;9.70;;
52368;SDS011;38298;50.346;3.526;2022-12-18T06:58:53;25.77;;;9.90;;
52368;SDS011;38298;50.346;3.526;2022-12-18T07:01:20;19.98;;;9.63;;
52368;SDS011;38298;50.346;3.526;2022-12-18T07:03:46;24.33;;;9.48;;
52368;SDS011;38298;50.346;3.526;2022-12-18T07:06:16;18.35;;;9.00;;
52368;SDS011;38298;50.346;3.526;2022-12-18T07:11:08;20.63;;;8.73;;
52368;SDS011;38298;50.346;3.526;2022-12-18T07:13:34;28.70;;;10.32;;
52368;SDS011;38298;50.346;3.526;2022-12-18T07:16:04;25.65;;;10.10;;
52368;SDS011;38298;50.346;3.526;2022-12-18T07:18:30;25.10;;;10.65;;
52368;SDS011;38298;50.346;3.526;2022-12-18T07:20:56;29.10;;;11.00;;
52368;SDS011;38298;50.346;3.526;2022-12-18T07:23:22;27.92;;;10.63;;
52368;SDS011;38298;50.346;3.526;2022-12-18T07:25:48;27.02;;;11.35;;
52368;SDS011;38298;50.346;3.526;2022-12-18T07:28:14;27.73;;;10.38;;
52368;SDS011;38298;50.346;3.526;2022-12-18T07:30:40;22.52;;;10.82;;
52368;SDS011;38298;50.346;3.526;2022-12-18T07:33:06;29.17;;;11.65;;
52368;SDS011;38298;50.346;3.526;2022-12-18T07:35:33;27.05;;;10.98;;
52368;SDS011;38298;50.346;3.526;2022-12-18T07:38:02;28.27;;;10.88;;
52368;SDS011;38298;50.346;3.526;2022-12-18T07:40:28;26.75;;;10.73;;
52368;SDS011;38298;50.346;3.526;2022-12-18T07:42:54;25.92;;;10.63;;
52368;SDS011;38298;50.346;3.526;2022-12-18T07:45:20;29.02;;;11.10;;
52368;SDS011;38298;50.346;3.526;2022-12-18T07:47:46;24.25;;;10.02;;
52368;SDS011;38298;50.346;3.526;2022-12-18T07:50:12;23.52;;;10.88;;
52368;SDS011;38298;50.346;3.526;2022-12-18T07:52:38;29.42;;;11.15;;
52368;SDS011;38298;50.346;3.526;2022-12-18T07:55:04;29.48;;;11.48;;
52368;SDS011;38298;50.346;3.526;2022-12-18T07:57:30;25.50;;;10.38;;
52368;SDS011;38298;50.346;3.526;2022-12-18T07:59:56;26.58;;;11.40;;
52368;SDS011;38298;50.346;3.526;2022-12-18T08:02:22;33.88;;;12.38;;
52368;SDS011;38298;50.346;3.526;2022-12-18T08:04:48;28.08;;;11.60;;
52368;SDS011;38298;50.346;3.526;2022-12-18T08:07:14;27.67;;;11.48;;
52368;SDS011;38298;50.346;3.526;2022-12-18T08:09:40;30.63;;;12.30;;
52368;SDS011;38298;50.346;3.526;2022-12-18T08:12:06;33.22;;;12.82;;
52368;SDS011;38298;50.346;3.526;2022-12-18T08:14:32;28.45;;;11.90;;
52368;SDS011;38298;50.346;3.526;2022-12-18T08:16:58;32.15;;;13.05;;
52368;SDS011;38298;50.346;3.526;2022-12-18T08:19:24;29.67;;;11.55;;
52368;SDS011;38298;50.346;3.526;2022-12-18T08:21:50;27.05;;;12.35;;
52368;SDS011;38298;50.346;3.526;2022-12-18T08:24:16;28.70;;;12.90;;
52368;SDS011;38298;50.346;3.526;2022-12-18T08:26:42;32.55;;;12.50;;
52368;SDS011;38298;50.346;3.526;2022-12-18T08:29:08;35.30;;;14.25;;
52368;SDS011;38298;50.346;3.526;2022-12-18T08:31:34;36.60;;;14.55;;
52368;SDS011;38298;50.346;3.526;2022-12-18T08:34:00;30.25;;;13.48;;
52368;SDS011;38298;50.346;3.526;2022-12-18T08:36:26;37.35;;;13.70;;
52368;SDS011;38298;50.346;3.526;2022-12-18T08:38:53;27.92;;;11.93;;
52368;SDS011;38298;50.346;3.526;2022-12-18T08:41:19;32.65;;;13.70;;
52368;SDS011;38298;50.346;3.526;2022-12-18T08:43:45;32.80;;;12.27;;
52368;SDS011;38298;50.346;3.526;2022-12-18T08:46:37;27.48;;;12.25;;
52368;SDS011;38298;50.346;3.526;2022-12-18T08:49:04;31.10;;;12.32;;
52368;SDS011;38298;50.346;3.526;2022-12-18T08:51:30;27.88;;;11.50;;
52368;SDS011;38298;50.346;3.526;2022-12-18T08:53:56;34.25;;;12.32;;
52368;SDS011;38298;50.346;3.526;2022-12-18T08:56:22;25.65;;;12.18;;
52368;SDS011;38298;50.346;3.526;2022-12-18T08:58:51;28.20;;;12.27;;
52368;SDS011;38298;50.346;3.526;2022-12-18T09:01:17;34.80;;;12.55;;
52368;SDS011;38298;50.346;3.526;2022-12-18T09:03:43;32.40;;;13.05;;
52368;SDS011;38298;50.346;3.526;2022-12-18T09:06:18;34.80;;;13.60;;
52368;SDS011;38298;50.346;3.526;2022-12-18T09:08:44;29.00;;;13.05;;
52368;SDS011;38298;50.346;3.526;2022-12-18T09:11:15;30.27;;;13.02;;
52368;SDS011;38298;50.346;3.526;2022-12-18T09:13:43;30.33;;;13.18;;
52368;SDS011;38298;50.346;3.526;2022-12-18T09:16:09;30.75;;;12.57;;
52368;SDS011;38298;50.346;3.526;2022-12-18T09:18:35;32.65;;;13.27;;
52368;SDS011;38298;50.346;3.526;2022-12-18T09:21:07;28.98;;;13.32;;
52368;SDS011;38298;50.346;3.526;2022-12-18T09:23:33;33.05;;;12.93;;
52368;SDS011;38298;50.346;3.526;2022-12-18T09:25:59;30.35;;;13.48;;
52368;SDS011;38298;50.346;3.526;2022-12-18T09:28:29;32.00;;;13.73;;
52368;SDS011;38298;50.346;3.526;2022-12-18T09:30:55;35.55;;;13.05;;
52368;SDS011;38298;50.346;3.526;2022-12-18T09:33:21;34.28;;;13.95;;
52368;SDS011;38298;50.346;3.526;2022-12-18T09:35:47;30.63;;;14.18;;
52368;SDS011;38298;50.346;3.526;2022-12-18T09:38:14;32.47;;;13.55;;
52368;SDS011;38298;50.346;3.526;2022-12-18T09:40:51;37.20;;;14.57;;
52368;SDS011;38298;50.346;3.526;2022-12-18T09:43:24;29.95;;;13.73;;
52368;SDS011;38298;50.346;3.526;2022-12-18T09:45:53;35.20;;;14.35;;
52368;SDS011;38298;50.346;3.526;2022-12-18T09:48:22;36.65;;;15.07;;
52368;SDS011;38298;50.346;3.526;2022-12-18T09:50:49;36.95;;;15.23;;
52368;SDS011;38298;50.346;3.526;2022-12-18T09:53:19;38.13;;;14.63;;
52368;SDS011;38298;50.346;3.526;2022-12-18T09:55:46;35.60;;;14.32;;
52368;SDS011;38298;50.346;3.526;2022-12-18T09:58:18;33.95;;;14.77;;
52368;SDS011;38298;50.346;3.526;2022-12-18T10:00:45;39.67;;;15.82;;
52368;SDS011;38298;50.346;3.526;2022-12-18T10:03:15;33.25;;;14.13;;
52368;SDS011;38298;50.346;3.526;2022-12-18T10:05:44;39.53;;;15.85;;
52368;SDS011;38298;50.346;3.526;2022-12-18T10:11:03;34.42;;;14.30;;
52368;SDS011;38298;50.346;3.526;2022-12-18T10:13:44;35.50;;;14.65;;
52368;SDS011;38298;50.346;3.526;2022-12-18T10:16:16;40.15;;;14.88;;
52368;SDS011;38298;50.346;3.526;2022-12-18T10:19:05;37.72;;;14.93;;
52368;SDS011;38298;50.346;3.526;2022-12-18T10:27:09;34.42;;;15.70;;
52368;SDS011;38298;50.346;3.526;2022-12-18T10:29:36;44.13;;;15.73;;
52368;SDS011;38298;50.346;3.526;2022-12-18T10:32:03;39.17;;;15.65;;
52368;SDS011;38298;50.346;3.526;2022-12-18T10:34:29;39.80;;;16.35;;
52368;SDS011;38298;50.346;3.526;2022-12-18T10:36:55;35.95;;;15.50;;
52368;SDS011;38298;50.346;3.526;2022-12-18T10:39:22;36.38;;;16.02;;
52368;SDS011;38298;50.346;3.526;2022-12-18T10:41:51;36.65;;;15.10;;
52368;SDS011;38298;50.346;3.526;2022-12-18T10:44:21;33.03;;;14.93;;
52368;SDS011;38298;50.346;3.526;2022-12-18T10:46:49;36.33;;;15.18;;
52368;SDS011;38298;50.346;3.526;2022-12-18T10:49:19;42.47;;;15.85;;
52368;SDS011;38298;50.346;3.526;2022-12-18T10:51:45;46.72;;;15.93;;
52368;SDS011;38298;50.346;3.526;2022-12-18T10:56:40;38.50;;;15.07;;
52368;SDS011;38298;50.346;3.526;2022-12-18T10:59:07;35.45;;;14.80;;
52368;SDS011;38298;50.346;3.526;2022-12-18T11:01:56;37.42;;;15.82;;
52368;SDS011;38298;50.346;3.526;2022-12-18T11:07:03;35.30;;;15.15;;
52368;SDS011;38298;50.346;3.526;2022-12-18T11:09:30;39.70;;;15.85;;
52368;SDS011;38298;50.346;3.526;2022-12-18T11:12:00;41.55;;;15.43;;
52368;SDS011;38298;50.346;3.526;2022-12-18T11:14:28;39.65;;;15.52;;
52368;SDS011;38298;50.346;3.526;2022-12-18T11:16:55;38.28;;;15.27;;
52368;SDS011;38298;50.346;3.526;2022-12-18T11:22:00;36.72;;;14.98;;
52368;SDS011;38298;50.346;3.526;2022-12-18T11:24:33;44.60;;;15.40;;
52368;SDS011;38298;50.346;3.526;2022-12-18T11:27:01;38.45;;;16.77;;
52368;SDS011;38298;50.346;3.526;2022-12-18T11:29:37;39.35;;;15.55;;
52368;SDS011;38298;50.346;3.526;2022-12-18T11:32:21;39.65;;;15.40;;
52368;SDS011;38298;50.346;3.526;2022-12-18T11:34:52;45.47;;;16.85;;
52368;SDS011;38298;50.346;3.526;2022-12-18T11:37:19;41.45;;;17.00;;
52368;SDS011;38298;50.346;3.526;2022-12-18T11:44:51;39.08;;;16.23;;
52368;SDS011;38298;50.346;3.526;2022-12-18T11:49:50;37.03;;;15.68;;
52368;SDS011;38298;50.346;3.526;2022-12-18T11:52:24;38.13;;;14.88;;
52368;SDS011;38298;50.346;3.526;2022-12-18T11:54:52;31.55;;;14.43;;
52368;SDS011;38298;50.346;3.526;2022-12-18T12:15:20;42.47;;;14.52;;
52368;SDS011;38298;50.346;3.526;2022-12-18T12:17:54;39.33;;;13.80;;
52368;SDS011;38298;50.346;3.526;2022-12-18T12:20:22;36.13;;;14.05;;
52368;SDS011;38298;50.346;3.526;2022-12-18T12:22:58;40.80;;;14.85;;
52368;SDS011;38298;50.346;3.526;2022-12-18T12:25:29;36.95;;;15.02;;
52368;SDS011;38298;50.346;3.526;2022-12-18T12:30:36;37.47;;;14.13;;
52368;SDS011;38298;50.346;3.526;2022-12-18T12:40:49;36.38;;;14.20;;
52368;SDS011;38298;50.346;3.526;2022-12-18T12:51:12;41.78;;;15.73;;
52368;SDS011;38298;50.346;3.526;2022-12-18T12:53:38;37.97;;;15.13;;
52368;SDS011;38298;50.346;3.526;2022-12-18T12:56:06;45.42;;;15.32;;
52368;SDS011;38298;50.346;3.526;2022-12-18T13:02:02;38.28;;;14.88;;
52368;SDS011;38298;50.346;3.526;2022-12-18T13:07:03;38.90;;;14.43;;
52368;SDS011;38298;50.346;3.526;2022-12-18T13:09:33;43.25;;;15.13;;
52368;SDS011;38298;50.346;3.526;2022-12-18T13:12:03;37.17;;;14.90;;
52368;SDS011;38298;50.346;3.526;2022-12-18T13:14:48;43.03;;;15.25;;
52368;SDS011;38298;50.346;3.526;2022-12-18T13:19:56;42.97;;;15.35;;
52368;SDS011;38298;50.346;3.526;2022-12-18T13:22:30;40.70;;;14.65;;
52368;SDS011;38298;50.346;3.526;2022-12-18T13:24:57;41.75;;;14.18;;
52368;SDS011;38298;50.346;3.526;2022-12-18T13:40:53;36.35;;;15.07;;
52368;SDS011;38298;50.346;3.526;2022-12-18T13:45:49;38.40;;;14.82;;
52368;SDS011;38298;50.346;3.526;2022-12-18T13:48:20;39.70;;;15.00;;
52368;SDS011;38298;50.346;3.526;2022-12-18T13:50:59;35.95;;;14.02;;
52368;SDS011;38298;50.346;3.526;2022-12-18T13:55:52;40.28;;;13.95;;
52368;SDS011;38298;50.346;3.526;2022-12-18T13:58:18;37.70;;;13.75;;
52368;SDS011;38298;50.346;3.526;2022-12-18T14:00:45;42.88;;;14.88;;
52368;SDS011;38298;50.346;3.526;2022-12-18T14:03:18;43.28;;;16.17;;
52368;SDS011;38298;50.346;3.526;2022-12-18T14:05:44;40.72;;;15.23;;
52368;SDS011;38298;50.346;3.526;2022-12-18T14:08:14;41.20;;;14.32;;
52368;SDS011;38298;50.346;3.526;2022-12-18T14:10:45;43.13;;;15.48;;
52368;SDS011;38298;50.346;3.526;2022-12-18T14:13:14;41.60;;;15.95;;
52368;SDS011;38298;50.346;3.526;2022-12-18T14:15:41;42.08;;;14.73;;
52368;SDS011;38298;50.346;3.526;2022-12-18T14:20:41;40.92;;;14.80;;
52368;SDS011;38298;50.346;3.526;2022-12-18T14:25:56;40.22;;;13.73;;
52368;SDS011;38298;50.346;3.526;2022-12-18T14:28:22;37.80;;;14.68;;
52368;SDS011;38298;50.346;3.526;2022-12-18T14:30:49;41.67;;;15.38;;
52368;SDS011;38298;50.346;3.526;2022-12-18T14:33:16;42.60;;;16.05;;
52368;SDS011;38298;50.346;3.526;2022-12-18T14:38:29;43.10;;;15.82;;
52368;SDS011;38298;50.346;3.526;2022-12-18T14:43:25;42.00;;;14.65;;
52368;SDS011;38298;50.346;3.526;2022-12-18T14:45:51;42.55;;;15.25;;
52368;SDS011;38298;50.346;3.526;2022-12-18T14:48:22;37.80;;;13.82;;
52368;SDS011;38298;50.346;3.526;2022-12-18T14:53:32;43.80;;;14.38;;
52368;SDS011;38298;50.346;3.526;2022-12-18T14:55:58;39.05;;;14.00;;
52368;SDS011;38298;50.346;3.526;2022-12-18T14:58:24;40.30;;;15.68;;
52368;SDS011;38298;50.346;3.526;2022-12-18T15:03:55;39.90;;;14.48;;
52368;SDS011;38298;50.346;3.526;2022-12-18T15:06:26;39.65;;;13.60;;
52368;SDS011;38298;50.346;3.526;2022-12-18T15:08:52;41.70;;;14.80;;
52368;SDS011;38298;50.346;3.526;2022-12-18T15:11:25;42.75;;;14.43;;
52368;SDS011;38298;50.346;3.526;2022-12-18T15:13:51;37.75;;;14.18;;
52368;SDS011;38298;50.346;3.526;2022-12-18T15:16:17;43.28;;;14.48;;
52368;SDS011;38298;50.346;3.526;2022-12-18T15:18:43;36.72;;;14.10;;
52368;SDS011;38298;50.346;3.526;2022-12-18T15:21:11;38.85;;;13.60;;
52368;SDS011;38298;50.346;3.526;2022-12-18T15:26:11;42.65;;;13.77;;
52368;SDS011;38298;50.346;3.526;2022-12-18T15:33:37;40.45;;;14.13;;
52368;SDS011;38298;50.346;3.526;2022-12-18T15:36:04;38.40;;;14.40;;
52368;SDS011;38298;50.346;3.526;2022-12-18T15:38:30;43.55;;;14.57;;
52368;SDS011;38298;50.346;3.526;2022-12-18T15:40:57;39.90;;;14.77;;
52368;SDS011;38298;50.346;3.526;2022-12-18T15:43:23;38.13;;;13.98;;
52368;SDS011;38298;50.346;3.526;2022-12-18T15:45:59;38.28;;;13.88;;
52368;SDS011;38298;50.346;3.526;2022-12-18T15:48:25;43.88;;;15.80;;
52368;SDS011;38298;50.346;3.526;2022-12-18T15:50:52;46.53;;;13.90;;
52368;SDS011;38298;50.346;3.526;2022-12-18T15:53:18;45.63;;;14.32;;
52368;SDS011;38298;50.346;3.526;2022-12-18T15:55:44;40.80;;;14.40;;
52368;SDS011;38298;50.346;3.526;2022-12-18T15:58:29;42.72;;;14.60;;
52368;SDS011;38298;50.346;3.526;2022-12-18T16:00:55;39.80;;;14.48;;
52368;SDS011;38298;50.346;3.526;2022-12-18T16:03:21;40.05;;;14.43;;
52368;SDS011;38298;50.346;3.526;2022-12-18T16:05:47;37.33;;;13.68;;
52368;SDS011;38298;50.346;3.526;2022-12-18T16:08:13;37.85;;;13.70;;
52368;SDS011;38298;50.346;3.526;2022-12-18T16:10:39;40.17;;;13.70;;
52368;SDS011;38298;50.346;3.526;2022-12-18T16:13:06;40.95;;;13.93;;
52368;SDS011;38298;50.346;3.526;2022-12-18T16:15:32;37.00;;;13.20;;
52368;SDS011;38298;50.346;3.526;2022-12-18T16:17:58;41.85;;;13.70;;
52368;SDS011;38298;50.346;3.526;2022-12-18T16:20:24;39.72;;;14.23;;
52368;SDS011;38298;50.346;3.526;2022-12-18T16:22:50;39.90;;;14.38;;
52368;SDS011;38298;50.346;3.526;2022-12-18T16:25:25;44.22;;;14.30;;
52368;SDS011;38298;50.346;3.526;2022-12-18T16:27:52;37.03;;;13.30;;
52368;SDS011;38298;50.346;3.526;2022-12-18T16:30:21;40.03;;;14.15;;
52368;SDS011;38298;50.346;3.526;2022-12-18T16:32:47;37.72;;;14.15;;
52368;SDS011;38298;50.346;3.526;2022-12-18T16:35:13;38.72;;;13.23;;
52368;SDS011;38298;50.346;3.526;2022-12-18T16:37:40;42.13;;;14.77;;
52368;SDS011;38298;50.346;3.526;2022-12-18T16:40:11;39.55;;;14.35;;
52368;SDS011;38298;50.346;3.526;2022-12-18T16:42:38;38.47;;;14.00;;
52368;SDS011;38298;50.346;3.526;2022-12-18T16:45:05;36.72;;;13.48;;
52368;SDS011;38298;50.346;3.526;2022-12-18T16:47:31;37.22;;;12.93;;
52368;SDS011;38298;50.346;3.526;2022-12-18T16:49:58;41.60;;;13.23;;
52368;SDS011;38298;50.346;3.526;2022-12-18T16:52:24;32.47;;;13.27;;